sensor_id;sensor_type;location;lat;lon;timestamp;P1;durP1;ratioP1;P2;durP2;ratioP2
7683;SDS011;3884;48.616;12.872;2023-04-25T00:02:26;2.90;;;2.70;;
7683;SDS011;3884;48.616;12.872;2023-04-25T00:04:54;3.13;;;2.80;;
7683;SDS011;3884;48.616;12.872;2023-04-25T00:07:24;3.03;;;2.60;;
7683;SDS011;3884;48.616;12.872;2023-04-25T00:09:51;3.03;;;2.73;;
7683;SDS011;3884;48.616;12.872;2023-04-25T00:12:19;3.73;;;2.80;;
7683;SDS011;3884;48.616;12.872;2023-04-25T00:14:46;3.60;;;3.00;;
7683;SDS011;3884;48.616;12.872;2023-04-25T00:17:14;3.10;;;2.80;;
7683;SDS011;3884;48.616;12.872;2023-04-25T00:19:41;3.10;;;2.60;;
7683;SDS011;3884;48.616;12.872;2023-04-25T00:22:11;3.30;;;2.80;;
7683;SDS011;3884;48.616;12.872;2023-04-25T00:24:38;2.93;;;2.50;;
7683;SDS011;3884;48.616;12.872;2023-04-25T00:27:05;3.77;;;3.10;;
7683;SDS011;3884;48.616;12.872;2023-04-25T00:29:32;5.13;;;2.90;;
7683;SDS011;3884;48.616;12.872;2023-04-25T00:31:59;3.30;;;3.00;;
7683;SDS011;3884;48.616;12.872;2023-04-25T00:34:27;3.07;;;2.87;;
7683;SDS011;3884;48.616;12.872;2023-04-25T00:36:53;4.30;;;3.10;;
7683;SDS011;3884;48.616;12.872;2023-04-25T00:39:23;4.83;;;3.00;;
7683;SDS011;3884;48.616;12.872;2023-04-25T00:41:50;3.30;;;3.00;;
7683;SDS011;3884;48.616;12.872;2023-04-25T00:44:19;4.13;;;2.80;;
7683;SDS011;3884;48.616;12.872;2023-04-25T00:46:47;3.40;;;3.10;;
7683;SDS011;3884;48.616;12.872;2023-04-25T00:49:14;3.77;;;3.10;;
7683;SDS011;3884;48.616;12.872;2023-04-25T00:51:42;3.17;;;2.87;;
7683;SDS011;3884;48.616;12.872;2023-04-25T00:54:10;3.47;;;3.00;;
7683;SDS011;3884;48.616;12.872;2023-04-25T00:56:40;3.73;;;2.97;;
7683;SDS011;3884;48.616;12.872;2023-04-25T00:59:07;4.60;;;2.97;;
7683;SDS011;3884;48.616;12.872;2023-04-25T01:01:38;4.57;;;3.10;;
7683;SDS011;3884;48.616;12.872;2023-04-25T01:04:07;4.00;;;3.40;;
7683;SDS011;3884;48.616;12.872;2023-04-25T01:06:35;3.80;;;3.30;;
7683;SDS011;3884;48.616;12.872;2023-04-25T01:09:02;3.33;;;3.03;;
7683;SDS011;3884;48.616;12.872;2023-04-25T01:11:30;3.50;;;3.20;;
7683;SDS011;3884;48.616;12.872;2023-04-25T01:13:59;4.60;;;3.10;;
7683;SDS011;3884;48.616;12.872;2023-04-25T01:16:27;3.50;;;3.20;;
7683;SDS011;3884;48.616;12.872;2023-04-25T01:18:55;2.90;;;2.70;;
7683;SDS011;3884;48.616;12.872;2023-04-25T01:21:24;3.00;;;2.80;;
7683;SDS011;3884;48.616;12.872;2023-04-25T01:23:55;3.87;;;3.13;;
7683;SDS011;3884;48.616;12.872;2023-04-25T01:26:23;4.73;;;3.33;;
7683;SDS011;3884;48.616;12.872;2023-04-25T01:28:51;2.90;;;2.60;;
7683;SDS011;3884;48.616;12.872;2023-04-25T01:31:21;3.33;;;3.03;;
7683;SDS011;3884;48.616;12.872;2023-04-25T01:33:48;3.53;;;3.00;;
7683;SDS011;3884;48.616;12.872;2023-04-25T01:36:15;4.50;;;3.07;;
7683;SDS011;3884;48.616;12.872;2023-04-25T01:38:44;6.93;;;3.07;;
7683;SDS011;3884;48.616;12.872;2023-04-25T01:41:12;3.90;;;3.27;;
7683;SDS011;3884;48.616;12.872;2023-04-25T01:43:45;4.00;;;3.20;;
7683;SDS011;3884;48.616;12.872;2023-04-25T01:46:19;3.90;;;3.37;;
7683;SDS011;3884;48.616;12.872;2023-04-25T01:48:46;4.57;;;3.20;;
7683;SDS011;3884;48.616;12.872;2023-04-25T01:51:16;3.97;;;3.00;;
7683;SDS011;3884;48.616;12.872;2023-04-25T01:53:45;3.50;;;3.20;;
7683;SDS011;3884;48.616;12.872;2023-04-25T01:56:13;4.37;;;3.53;;
7683;SDS011;3884;48.616;12.872;2023-04-25T01:58:40;4.50;;;3.37;;
7683;SDS011;3884;48.616;12.872;2023-04-25T02:01:19;3.27;;;3.00;;
7683;SDS011;3884;48.616;12.872;2023-04-25T02:04:01;3.63;;;3.33;;
7683;SDS011;3884;48.616;12.872;2023-04-25T02:06:37;3.33;;;3.03;;
7683;SDS011;3884;48.616;12.872;2023-04-25T02:09:12;3.50;;;3.20;;
7683;SDS011;3884;48.616;12.872;2023-04-25T02:11:44;4.10;;;3.70;;
7683;SDS011;3884;48.616;12.872;2023-04-25T02:14:31;4.40;;;3.23;;
7683;SDS011;3884;48.616;12.872;2023-04-25T02:17:12;4.13;;;3.47;;
7683;SDS011;3884;48.616;12.872;2023-04-25T02:19:51;5.40;;;4.50;;
7683;SDS011;3884;48.616;12.872;2023-04-25T02:22:22;3.97;;;3.07;;
7683;SDS011;3884;48.616;12.872;2023-04-25T02:24:53;5.33;;;3.27;;
7683;SDS011;3884;48.616;12.872;2023-04-25T02:27:21;4.60;;;3.60;;
7683;SDS011;3884;48.616;12.872;2023-04-25T02:29:48;3.40;;;3.10;;
7683;SDS011;3884;48.616;12.872;2023-04-25T02:32:15;3.27;;;2.97;;
7683;SDS011;3884;48.616;12.872;2023-04-25T02:34:42;3.87;;;3.43;;
7683;SDS011;3884;48.616;12.872;2023-04-25T02:37:09;3.33;;;3.03;;
7683;SDS011;3884;48.616;12.872;2023-04-25T02:39:37;3.53;;;3.23;;
7683;SDS011;3884;48.616;12.872;2023-04-25T02:42:05;3.73;;;3.30;;
7683;SDS011;3884;48.616;12.872;2023-04-25T02:44:35;4.30;;;3.67;;
7683;SDS011;3884;48.616;12.872;2023-04-25T02:47:04;4.53;;;3.60;;
7683;SDS011;3884;48.616;12.872;2023-04-25T02:49:31;4.23;;;3.83;;
7683;SDS011;3884;48.616;12.872;2023-04-25T02:51:58;4.37;;;3.97;;
7683;SDS011;3884;48.616;12.872;2023-04-25T02:54:28;5.20;;;3.53;;
7683;SDS011;3884;48.616;12.872;2023-04-25T02:56:56;6.23;;;3.60;;
7683;SDS011;3884;48.616;12.872;2023-04-25T02:59:29;3.93;;;3.40;;
7683;SDS011;3884;48.616;12.872;2023-04-25T03:01:57;3.60;;;3.30;;
7683;SDS011;3884;48.616;12.872;2023-04-25T03:04:24;3.67;;;3.37;;
7683;SDS011;3884;48.616;12.872;2023-04-25T03:06:52;5.53;;;3.50;;
7683;SDS011;3884;48.616;12.872;2023-04-25T03:09:20;3.50;;;3.20;;
7683;SDS011;3884;48.616;12.872;2023-04-25T03:11:50;4.53;;;3.20;;
7683;SDS011;3884;48.616;12.872;2023-04-25T03:14:26;5.57;;;4.00;;
7683;SDS011;3884;48.616;12.872;2023-04-25T03:16:56;4.30;;;3.77;;
7683;SDS011;3884;48.616;12.872;2023-04-25T03:19:44;4.00;;;3.27;;
7683;SDS011;3884;48.616;12.872;2023-04-25T03:22:14;3.40;;;3.07;;
7683;SDS011;3884;48.616;12.872;2023-04-25T03:24:41;4.03;;;3.47;;
7683;SDS011;3884;48.616;12.872;2023-04-25T03:27:08;4.70;;;3.23;;
7683;SDS011;3884;48.616;12.872;2023-04-25T03:29:37;4.60;;;3.50;;
7683;SDS011;3884;48.616;12.872;2023-04-25T03:32:06;4.33;;;3.53;;
7683;SDS011;3884;48.616;12.872;2023-04-25T03:34:33;6.00;;;3.40;;
7683;SDS011;3884;48.616;12.872;2023-04-25T03:37:00;5.03;;;3.63;;
7683;SDS011;3884;48.616;12.872;2023-04-25T03:39:31;3.57;;;3.27;;
7683;SDS011;3884;48.616;12.872;2023-04-25T03:42:00;3.77;;;3.37;;
7683;SDS011;3884;48.616;12.872;2023-04-25T03:44:29;4.00;;;3.60;;
7683;SDS011;3884;48.616;12.872;2023-04-25T03:46:57;5.70;;;3.80;;
7683;SDS011;3884;48.616;12.872;2023-04-25T03:49:43;4.23;;;3.80;;
7683;SDS011;3884;48.616;12.872;2023-04-25T03:52:21;3.70;;;3.40;;
7683;SDS011;3884;48.616;12.872;2023-04-25T03:55:02;6.50;;;4.40;;
7683;SDS011;3884;48.616;12.872;2023-04-25T03:57:30;4.00;;;3.60;;
7683;SDS011;3884;48.616;12.872;2023-04-25T03:59:59;5.43;;;4.03;;
7683;SDS011;3884;48.616;12.872;2023-04-25T04:02:40;4.97;;;3.90;;
7683;SDS011;3884;48.616;12.872;2023-04-25T04:05:08;5.10;;;3.63;;
7683;SDS011;3884;48.616;12.872;2023-04-25T04:07:41;4.17;;;3.77;;
7683;SDS011;3884;48.616;12.872;2023-04-25T04:10:09;5.27;;;3.73;;
7683;SDS011;3884;48.616;12.872;2023-04-25T04:12:38;4.27;;;3.53;;
7683;SDS011;3884;48.616;12.872;2023-04-25T04:15:07;5.93;;;4.23;;
7683;SDS011;3884;48.616;12.872;2023-04-25T04:17:35;10.10;;;7.40;;
7683;SDS011;3884;48.616;12.872;2023-04-25T04:20:04;6.87;;;4.13;;
7683;SDS011;3884;48.616;12.872;2023-04-25T04:22:36;4.87;;;3.93;;
7683;SDS011;3884;48.616;12.872;2023-04-25T04:26:59;5.73;;;4.00;;
7683;SDS011;3884;48.616;12.872;2023-04-25T04:28:37;4.30;;;3.90;;
7683;SDS011;3884;48.616;12.872;2023-04-25T04:31:18;4.80;;;4.00;;
7683;SDS011;3884;48.616;12.872;2023-04-25T04:33:47;7.10;;;3.73;;
7683;SDS011;3884;48.616;12.872;2023-04-25T04:36:19;4.40;;;4.00;;
7683;SDS011;3884;48.616;12.872;2023-04-25T04:38:48;6.07;;;3.80;;
7683;SDS011;3884;48.616;12.872;2023-04-25T04:41:30;4.70;;;3.57;;
7683;SDS011;3884;48.616;12.872;2023-04-25T04:44:35;4.60;;;3.50;;
7683;SDS011;3884;48.616;12.872;2023-04-25T04:47:25;4.13;;;3.73;;
7683;SDS011;3884;48.616;12.872;2023-04-25T04:50:21;4.57;;;4.00;;
7683;SDS011;3884;48.616;12.872;2023-04-25T04:53:25;6.70;;;4.40;;
7683;SDS011;3884;48.616;12.872;2023-04-25T04:55:52;4.50;;;4.10;;
7683;SDS011;3884;48.616;12.872;2023-04-25T04:58:31;4.80;;;3.90;;
7683;SDS011;3884;48.616;12.872;2023-04-25T05:01:18;4.73;;;4.13;;
7683;SDS011;3884;48.616;12.872;2023-04-25T05:03:59;4.73;;;4.23;;
7683;SDS011;3884;48.616;12.872;2023-04-25T05:06:44;4.20;;;3.80;;
7683;SDS011;3884;48.616;12.872;2023-04-25T05:09:30;4.70;;;4.10;;
7683;SDS011;3884;48.616;12.872;2023-04-25T05:12:26;4.87;;;4.47;;
7683;SDS011;3884;48.616;12.872;2023-04-25T05:15:13;6.00;;;4.87;;
7683;SDS011;3884;48.616;12.872;2023-04-25T05:18:02;4.70;;;4.30;;
7683;SDS011;3884;48.616;12.872;2023-04-25T05:20:44;5.53;;;4.37;;
7683;SDS011;3884;48.616;12.872;2023-04-25T05:23:24;5.03;;;4.53;;
7683;SDS011;3884;48.616;12.872;2023-04-25T05:26:04;6.43;;;4.83;;
7683;SDS011;3884;48.616;12.872;2023-04-25T05:28:51;4.70;;;4.20;;
7683;SDS011;3884;48.616;12.872;2023-04-25T05:31:47;6.17;;;3.97;;
7683;SDS011;3884;48.616;12.872;2023-04-25T05:34:15;4.43;;;3.80;;
7683;SDS011;3884;48.616;12.872;2023-04-25T05:36:55;5.60;;;3.60;;
7683;SDS011;3884;48.616;12.872;2023-04-25T05:39:23;3.93;;;3.60;;
7683;SDS011;3884;48.616;12.872;2023-04-25T05:42:12;5.07;;;3.90;;
7683;SDS011;3884;48.616;12.872;2023-04-25T05:44:57;5.33;;;3.70;;
7683;SDS011;3884;48.616;12.872;2023-04-25T05:47:31;4.43;;;4.03;;
7683;SDS011;3884;48.616;12.872;2023-04-25T05:50:09;5.33;;;3.70;;
7683;SDS011;3884;48.616;12.872;2023-04-25T05:52:54;4.27;;;3.87;;
7683;SDS011;3884;48.616;12.872;2023-04-25T05:55:41;4.80;;;4.10;;
7683;SDS011;3884;48.616;12.872;2023-04-25T05:58:38;5.27;;;3.90;;
7683;SDS011;3884;48.616;12.872;2023-04-25T06:01:06;4.50;;;4.07;;
7683;SDS011;3884;48.616;12.872;2023-04-25T06:03:34;5.33;;;4.20;;
7683;SDS011;3884;48.616;12.872;2023-04-25T06:06:03;5.80;;;4.00;;
7683;SDS011;3884;48.616;12.872;2023-04-25T06:08:31;5.73;;;4.03;;
7683;SDS011;3884;48.616;12.872;2023-04-25T06:10:59;7.07;;;4.13;;
7683;SDS011;3884;48.616;12.872;2023-04-25T06:13:26;4.40;;;4.00;;
7683;SDS011;3884;48.616;12.872;2023-04-25T06:15:55;5.70;;;4.23;;
7683;SDS011;3884;48.616;12.872;2023-04-25T06:18:22;5.67;;;4.27;;
7683;SDS011;3884;48.616;12.872;2023-04-25T06:20:49;5.57;;;4.63;;
7683;SDS011;3884;48.616;12.872;2023-04-25T06:23:17;5.00;;;4.10;;
7683;SDS011;3884;48.616;12.872;2023-04-25T06:25:50;4.50;;;4.10;;
7683;SDS011;3884;48.616;12.872;2023-04-25T06:28:17;6.90;;;4.40;;
7683;SDS011;3884;48.616;12.872;2023-04-25T06:30:44;6.17;;;3.90;;
7683;SDS011;3884;48.616;12.872;2023-04-25T06:33:17;6.50;;;4.47;;
7683;SDS011;3884;48.616;12.872;2023-04-25T06:35:45;6.27;;;4.27;;
7683;SDS011;3884;48.616;12.872;2023-04-25T06:38:16;6.57;;;4.03;;
7683;SDS011;3884;48.616;12.872;2023-04-25T06:40:46;4.27;;;3.90;;
7683;SDS011;3884;48.616;12.872;2023-04-25T06:43:13;4.20;;;3.80;;
7683;SDS011;3884;48.616;12.872;2023-04-25T06:45:49;4.57;;;3.80;;
7683;SDS011;3884;48.616;12.872;2023-04-25T06:48:19;4.70;;;4.07;;
7683;SDS011;3884;48.616;12.872;2023-04-25T06:50:46;6.20;;;4.00;;
7683;SDS011;3884;48.616;12.872;2023-04-25T06:53:13;6.37;;;4.23;;
7683;SDS011;3884;48.616;12.872;2023-04-25T06:55:42;4.13;;;3.73;;
7683;SDS011;3884;48.616;12.872;2023-04-25T06:58:15;4.53;;;3.70;;
7683;SDS011;3884;48.616;12.872;2023-04-25T07:00:52;6.80;;;3.80;;
7683;SDS011;3884;48.616;12.872;2023-04-25T07:03:24;4.57;;;4.17;;
7683;SDS011;3884;48.616;12.872;2023-04-25T07:05:55;5.37;;;4.27;;
7683;SDS011;3884;48.616;12.872;2023-04-25T07:08:23;4.13;;;3.40;;
7683;SDS011;3884;48.616;12.872;2023-04-25T07:10:50;5.10;;;3.90;;
7683;SDS011;3884;48.616;12.872;2023-04-25T07:13:17;6.77;;;3.93;;
7683;SDS011;3884;48.616;12.872;2023-04-25T07:15:45;5.20;;;3.90;;
7683;SDS011;3884;48.616;12.872;2023-04-25T07:18:13;5.20;;;4.23;;
7683;SDS011;3884;48.616;12.872;2023-04-25T07:20:41;4.50;;;4.10;;
7683;SDS011;3884;48.616;12.872;2023-04-25T07:23:08;4.43;;;3.57;;
7683;SDS011;3884;48.616;12.872;2023-04-25T07:25:35;4.83;;;4.33;;
7683;SDS011;3884;48.616;12.872;2023-04-25T07:28:02;5.73;;;4.20;;
7683;SDS011;3884;48.616;12.872;2023-04-25T07:30:29;5.53;;;3.77;;
7683;SDS011;3884;48.616;12.872;2023-04-25T07:32:56;5.70;;;3.93;;
7683;SDS011;3884;48.616;12.872;2023-04-25T07:35:24;5.93;;;4.00;;
7683;SDS011;3884;48.616;12.872;2023-04-25T07:37:52;5.63;;;4.27;;
7683;SDS011;3884;48.616;12.872;2023-04-25T07:40:19;4.47;;;4.07;;
7683;SDS011;3884;48.616;12.872;2023-04-25T07:42:52;6.07;;;3.93;;
7683;SDS011;3884;48.616;12.872;2023-04-25T07:45:36;4.70;;;4.20;;
7683;SDS011;3884;48.616;12.872;2023-04-25T07:48:27;5.00;;;4.23;;
7683;SDS011;3884;48.616;12.872;2023-04-25T07:50:55;4.27;;;3.80;;
7683;SDS011;3884;48.616;12.872;2023-04-25T07:53:24;5.47;;;4.10;;
7683;SDS011;3884;48.616;12.872;2023-04-25T07:55:59;4.53;;;4.13;;
7683;SDS011;3884;48.616;12.872;2023-04-25T07:58:31;4.17;;;3.80;;
7683;SDS011;3884;48.616;12.872;2023-04-25T08:01:10;5.27;;;4.33;;
7683;SDS011;3884;48.616;12.872;2023-04-25T08:03:54;6.07;;;3.87;;
7683;SDS011;3884;48.616;12.872;2023-04-25T08:06:34;4.30;;;3.90;;
7683;SDS011;3884;48.616;12.872;2023-04-25T08:09:14;4.80;;;3.97;;
7683;SDS011;3884;48.616;12.872;2023-04-25T08:11:42;5.23;;;3.80;;
7683;SDS011;3884;48.616;12.872;2023-04-25T08:14:11;4.83;;;3.30;;
7683;SDS011;3884;48.616;12.872;2023-04-25T08:16:39;4.40;;;3.33;;
7683;SDS011;3884;48.616;12.872;2023-04-25T08:19:07;4.90;;;3.50;;
7683;SDS011;3884;48.616;12.872;2023-04-25T08:21:34;3.87;;;3.47;;
7683;SDS011;3884;48.616;12.872;2023-04-25T08:24:04;4.03;;;3.63;;
7683;SDS011;3884;48.616;12.872;2023-04-25T08:26:36;7.37;;;3.93;;
7683;SDS011;3884;48.616;12.872;2023-04-25T08:29:05;5.20;;;3.70;;
7683;SDS011;3884;48.616;12.872;2023-04-25T08:31:34;5.03;;;3.73;;
7683;SDS011;3884;48.616;12.872;2023-04-25T08:34:04;4.53;;;3.30;;
7683;SDS011;3884;48.616;12.872;2023-04-25T08:36:49;5.03;;;3.83;;
7683;SDS011;3884;48.616;12.872;2023-04-25T08:39:37;5.03;;;3.27;;
7683;SDS011;3884;48.616;12.872;2023-04-25T08:42:34;2.83;;;2.50;;
7683;SDS011;3884;48.616;12.872;2023-04-25T08:45:04;2.30;;;2.00;;
7683;SDS011;3884;48.616;12.872;2023-04-25T08:47:35;2.43;;;2.07;;
7683;SDS011;3884;48.616;12.872;2023-04-25T08:50:05;2.67;;;1.77;;
7683;SDS011;3884;48.616;12.872;2023-04-25T08:52:35;1.93;;;1.73;;
7683;SDS011;3884;48.616;12.872;2023-04-25T08:55:04;2.70;;;1.93;;
7683;SDS011;3884;48.616;12.872;2023-04-25T08:57:38;1.93;;;1.73;;
7683;SDS011;3884;48.616;12.872;2023-04-25T09:00:08;1.87;;;1.37;;
7683;SDS011;3884;48.616;12.872;2023-04-25T09:02:38;2.07;;;1.83;;
7683;SDS011;3884;48.616;12.872;2023-04-25T09:05:07;4.57;;;2.40;;
7683;SDS011;3884;48.616;12.872;2023-04-25T09:07:35;3.60;;;2.20;;
7683;SDS011;3884;48.616;12.872;2023-04-25T09:10:03;3.17;;;2.23;;
7683;SDS011;3884;48.616;12.872;2023-04-25T09:12:34;1.87;;;1.73;;
7683;SDS011;3884;48.616;12.872;2023-04-25T09:15:04;2.50;;;2.07;;
7683;SDS011;3884;48.616;12.872;2023-04-25T09:18:05;2.67;;;2.40;;
7683;SDS011;3884;48.616;12.872;2023-04-25T09:20:40;4.13;;;2.23;;
7683;SDS011;3884;48.616;12.872;2023-04-25T09:23:08;3.30;;;2.53;;
7683;SDS011;3884;48.616;12.872;2023-04-25T09:25:37;3.23;;;2.60;;
7683;SDS011;3884;48.616;12.872;2023-04-25T09:28:06;3.17;;;2.83;;
7683;SDS011;3884;48.616;12.872;2023-04-25T09:30:35;3.37;;;2.90;;
7683;SDS011;3884;48.616;12.872;2023-04-25T09:33:09;2.53;;;2.33;;
7683;SDS011;3884;48.616;12.872;2023-04-25T09:35:42;3.33;;;2.70;;
7683;SDS011;3884;48.616;12.872;2023-04-25T09:38:18;2.80;;;2.60;;
7683;SDS011;3884;48.616;12.872;2023-04-25T09:41:09;4.33;;;2.80;;
7683;SDS011;3884;48.616;12.872;2023-04-25T09:43:41;5.33;;;2.80;;
7683;SDS011;3884;48.616;12.872;2023-04-25T09:46:13;5.07;;;2.90;;
7683;SDS011;3884;48.616;12.872;2023-04-25T09:48:47;3.63;;;2.80;;
7683;SDS011;3884;48.616;12.872;2023-04-25T09:51:20;3.60;;;3.00;;
7683;SDS011;3884;48.616;12.872;2023-04-25T09:53:52;3.50;;;3.03;;
7683;SDS011;3884;48.616;12.872;2023-04-25T09:56:42;3.47;;;2.43;;
7683;SDS011;3884;48.616;12.872;2023-04-25T09:59:10;2.80;;;2.50;;
7683;SDS011;3884;48.616;12.872;2023-04-25T10:01:40;2.90;;;2.30;;
7683;SDS011;3884;48.616;12.872;2023-04-25T10:04:22;3.17;;;2.50;;
7683;SDS011;3884;48.616;12.872;2023-04-25T10:07:14;3.50;;;2.50;;
7683;SDS011;3884;48.616;12.872;2023-04-25T10:09:43;4.13;;;2.60;;
7683;SDS011;3884;48.616;12.872;2023-04-25T10:12:13;3.33;;;2.83;;
7683;SDS011;3884;48.616;12.872;2023-04-25T10:14:40;4.17;;;3.37;;
7683;SDS011;3884;48.616;12.872;2023-04-25T10:17:10;4.20;;;3.10;;
7683;SDS011;3884;48.616;12.872;2023-04-25T10:19:37;3.60;;;3.30;;
7683;SDS011;3884;48.616;12.872;2023-04-25T10:22:05;5.07;;;3.40;;
7683;SDS011;3884;48.616;12.872;2023-04-25T10:24:34;4.60;;;3.30;;
7683;SDS011;3884;48.616;12.872;2023-04-25T10:27:02;3.40;;;3.10;;
7683;SDS011;3884;48.616;12.872;2023-04-25T10:29:29;12.27;;;8.77;;
7683;SDS011;3884;48.616;12.872;2023-04-25T10:31:56;4.20;;;3.80;;
7683;SDS011;3884;48.616;12.872;2023-04-25T10:34:37;4.40;;;3.43;;
7683;SDS011;3884;48.616;12.872;2023-04-25T10:37:08;3.73;;;3.30;;
7683;SDS011;3884;48.616;12.872;2023-04-25T10:39:37;3.67;;;3.30;;
7683;SDS011;3884;48.616;12.872;2023-04-25T10:42:06;5.23;;;3.80;;
7683;SDS011;3884;48.616;12.872;2023-04-25T10:44:34;3.80;;;3.50;;
7683;SDS011;3884;48.616;12.872;2023-04-25T10:47:02;3.67;;;3.20;;
7683;SDS011;3884;48.616;12.872;2023-04-25T10:49:34;4.70;;;3.37;;
7683;SDS011;3884;48.616;12.872;2023-04-25T10:52:11;3.70;;;2.50;;
7683;SDS011;3884;48.616;12.872;2023-04-25T10:54:48;2.67;;;2.47;;
7683;SDS011;3884;48.616;12.872;2023-04-25T10:57:30;2.90;;;2.70;;
7683;SDS011;3884;48.616;12.872;2023-04-25T11:00:05;2.93;;;2.63;;
7683;SDS011;3884;48.616;12.872;2023-04-25T11:02:38;2.57;;;2.37;;
7683;SDS011;3884;48.616;12.872;2023-04-25T11:05:09;2.57;;;2.37;;
7683;SDS011;3884;48.616;12.872;2023-04-25T11:07:43;1.83;;;1.70;;
7683;SDS011;3884;48.616;12.872;2023-04-25T11:10:15;1.83;;;1.73;;
7683;SDS011;3884;48.616;12.872;2023-04-25T11:12:42;2.47;;;2.03;;
7683;SDS011;3884;48.616;12.872;2023-04-25T11:15:09;2.10;;;1.60;;
7683;SDS011;3884;48.616;12.872;2023-04-25T11:17:36;2.23;;;1.73;;
7683;SDS011;3884;48.616;12.872;2023-04-25T11:20:05;1.90;;;1.80;;
7683;SDS011;3884;48.616;12.872;2023-04-25T11:22:37;2.13;;;1.60;;
7683;SDS011;3884;48.616;12.872;2023-04-25T11:25:07;1.90;;;1.80;;
7683;SDS011;3884;48.616;12.872;2023-04-25T11:27:37;1.70;;;1.60;;
7683;SDS011;3884;48.616;12.872;2023-04-25T11:30:10;2.93;;;1.90;;
7683;SDS011;3884;48.616;12.872;2023-04-25T11:32:40;5.17;;;3.70;;
7683;SDS011;3884;48.616;12.872;2023-04-25T11:35:08;2.73;;;1.60;;
7683;SDS011;3884;48.616;12.872;2023-04-25T11:37:35;2.43;;;1.80;;
7683;SDS011;3884;48.616;12.872;2023-04-25T11:40:03;2.60;;;1.70;;
7683;SDS011;3884;48.616;12.872;2023-04-25T11:42:34;1.93;;;1.83;;
7683;SDS011;3884;48.616;12.872;2023-04-25T11:45:01;5.27;;;2.10;;
7683;SDS011;3884;48.616;12.872;2023-04-25T11:47:29;2.70;;;2.20;;
7683;SDS011;3884;48.616;12.872;2023-04-25T11:49:57;3.57;;;2.30;;
7683;SDS011;3884;48.616;12.872;2023-04-25T11:52:34;2.80;;;2.40;;
7683;SDS011;3884;48.616;12.872;2023-04-25T11:55:07;3.20;;;2.90;;
7683;SDS011;3884;48.616;12.872;2023-04-25T11:57:35;3.13;;;2.83;;
7683;SDS011;3884;48.616;12.872;2023-04-25T12:00:09;2.73;;;2.53;;
7683;SDS011;3884;48.616;12.872;2023-04-25T12:02:40;2.90;;;2.70;;
7683;SDS011;3884;48.616;12.872;2023-04-25T12:05:07;3.03;;;2.60;;
7683;SDS011;3884;48.616;12.872;2023-04-25T12:07:35;3.10;;;2.90;;
7683;SDS011;3884;48.616;12.872;2023-04-25T12:10:07;3.43;;;3.13;;
7683;SDS011;3884;48.616;12.872;2023-04-25T12:12:36;4.63;;;3.60;;
7683;SDS011;3884;48.616;12.872;2023-04-25T12:15:08;4.40;;;4.00;;
7683;SDS011;3884;48.616;12.872;2023-04-25T12:17:36;4.90;;;4.27;;
7683;SDS011;3884;48.616;12.872;2023-04-25T12:20:08;4.47;;;3.67;;
7683;SDS011;3884;48.616;12.872;2023-04-25T12:22:39;4.10;;;3.80;;
7683;SDS011;3884;48.616;12.872;2023-04-25T12:25:11;5.10;;;4.60;;
7683;SDS011;3884;48.616;12.872;2023-04-25T12:27:38;3.70;;;3.40;;
7683;SDS011;3884;48.616;12.872;2023-04-25T12:30:08;3.10;;;2.80;;
7683;SDS011;3884;48.616;12.872;2023-04-25T12:32:36;3.33;;;2.97;;
7683;SDS011;3884;48.616;12.872;2023-04-25T12:37:31;2.47;;;2.27;;
7683;SDS011;3884;48.616;12.872;2023-04-25T12:39:58;2.80;;;2.60;;
7683;SDS011;3884;48.616;12.872;2023-04-25T12:42:26;2.93;;;2.73;;
7683;SDS011;3884;48.616;12.872;2023-04-25T12:44:54;2.80;;;2.60;;
7683;SDS011;3884;48.616;12.872;2023-04-25T12:47:21;2.87;;;2.57;;
7683;SDS011;3884;48.616;12.872;2023-04-25T12:49:48;2.50;;;2.30;;
7683;SDS011;3884;48.616;12.872;2023-04-25T12:52:15;3.07;;;2.87;;
7683;SDS011;3884;48.616;12.872;2023-04-25T12:54:42;3.53;;;2.90;;
7683;SDS011;3884;48.616;12.872;2023-04-25T12:57:08;3.60;;;3.30;;
7683;SDS011;3884;48.616;12.872;2023-04-25T12:59:37;3.53;;;3.23;;
7683;SDS011;3884;48.616;12.872;2023-04-25T13:02:04;3.00;;;2.70;;
7683;SDS011;3884;48.616;12.872;2023-04-25T13:04:31;3.97;;;3.23;;
7683;SDS011;3884;48.616;12.872;2023-04-25T13:06:59;3.33;;;3.03;;
7683;SDS011;3884;48.616;12.872;2023-04-25T13:09:26;4.23;;;2.70;;
7683;SDS011;3884;48.616;12.872;2023-04-25T13:11:53;3.13;;;2.70;;
7683;SDS011;3884;48.616;12.872;2023-04-25T13:14:20;3.20;;;2.90;;
7683;SDS011;3884;48.616;12.872;2023-04-25T13:16:49;3.57;;;3.27;;
7683;SDS011;3884;48.616;12.872;2023-04-25T13:19:18;3.77;;;3.40;;
7683;SDS011;3884;48.616;12.872;2023-04-25T13:21:45;5.33;;;3.50;;
7683;SDS011;3884;48.616;12.872;2023-04-25T13:24:11;3.20;;;2.90;;
7683;SDS011;3884;48.616;12.872;2023-04-25T13:26:38;3.43;;;3.13;;
7683;SDS011;3884;48.616;12.872;2023-04-25T13:29:05;3.73;;;3.43;;
7683;SDS011;3884;48.616;12.872;2023-04-25T13:31:32;4.93;;;4.53;;
7683;SDS011;3884;48.616;12.872;2023-04-25T13:34:01;4.40;;;4.00;;
7683;SDS011;3884;48.616;12.872;2023-04-25T13:36:28;6.00;;;4.80;;
7683;SDS011;3884;48.616;12.872;2023-04-25T13:38:55;5.33;;;4.40;;
7683;SDS011;3884;48.616;12.872;2023-04-25T13:41:22;4.33;;;3.90;;
7683;SDS011;3884;48.616;12.872;2023-04-25T13:43:49;4.90;;;4.23;;
7683;SDS011;3884;48.616;12.872;2023-04-25T13:46:17;4.57;;;4.17;;
7683;SDS011;3884;48.616;12.872;2023-04-25T13:48:43;5.73;;;4.30;;
7683;SDS011;3884;48.616;12.872;2023-04-25T13:51:15;5.30;;;4.80;;
7683;SDS011;3884;48.616;12.872;2023-04-25T13:53:43;5.07;;;4.13;;
7683;SDS011;3884;48.616;12.872;2023-04-25T13:56:10;4.80;;;4.33;;
7683;SDS011;3884;48.616;12.872;2023-04-25T13:58:37;5.17;;;4.53;;
7683;SDS011;3884;48.616;12.872;2023-04-25T14:01:07;4.80;;;4.40;;
7683;SDS011;3884;48.616;12.872;2023-04-25T14:03:33;4.90;;;4.40;;
7683;SDS011;3884;48.616;12.872;2023-04-25T14:06:00;4.87;;;4.37;;
7683;SDS011;3884;48.616;12.872;2023-04-25T14:08:29;5.43;;;4.93;;
7683;SDS011;3884;48.616;12.872;2023-04-25T14:10:55;4.70;;;4.27;;
7683;SDS011;3884;48.616;12.872;2023-04-25T14:13:22;4.90;;;4.40;;
7683;SDS011;3884;48.616;12.872;2023-04-25T14:15:50;8.43;;;6.13;;
7683;SDS011;3884;48.616;12.872;2023-04-25T14:18:17;4.50;;;3.97;;
7683;SDS011;3884;48.616;12.872;2023-04-25T14:20:44;5.80;;;4.57;;
7683;SDS011;3884;48.616;12.872;2023-04-25T14:23:11;5.10;;;3.80;;
7683;SDS011;3884;48.616;12.872;2023-04-25T14:25:39;4.10;;;3.50;;
7683;SDS011;3884;48.616;12.872;2023-04-25T14:28:07;6.60;;;5.50;;
7683;SDS011;3884;48.616;12.872;2023-04-25T14:30:33;4.70;;;3.60;;
7683;SDS011;3884;48.616;12.872;2023-04-25T14:33:00;4.47;;;4.07;;
7683;SDS011;3884;48.616;12.872;2023-04-25T14:35:27;4.40;;;3.30;;
7683;SDS011;3884;48.616;12.872;2023-04-25T14:37:55;5.20;;;3.70;;
7683;SDS011;3884;48.616;12.872;2023-04-25T14:40:22;4.90;;;3.97;;
7683;SDS011;3884;48.616;12.872;2023-04-25T14:42:50;3.60;;;3.20;;
7683;SDS011;3884;48.616;12.872;2023-04-25T14:45:17;4.13;;;3.60;;
7683;SDS011;3884;48.616;12.872;2023-04-25T14:47:44;4.10;;;3.03;;
7683;SDS011;3884;48.616;12.872;2023-04-25T14:50:11;3.70;;;2.87;;
7683;SDS011;3884;48.616;12.872;2023-04-25T14:52:38;4.00;;;2.30;;
7683;SDS011;3884;48.616;12.872;2023-04-25T14:55:14;3.53;;;2.57;;
7683;SDS011;3884;48.616;12.872;2023-04-25T14:57:43;2.53;;;2.10;;
7683;SDS011;3884;48.616;12.872;2023-04-25T15:00:12;3.03;;;2.03;;
7683;SDS011;3884;48.616;12.872;2023-04-25T15:02:41;2.80;;;2.10;;
7683;SDS011;3884;48.616;12.872;2023-04-25T15:05:08;2.77;;;2.57;;
7683;SDS011;3884;48.616;12.872;2023-04-25T15:07:35;6.33;;;4.00;;
7683;SDS011;3884;48.616;12.872;2023-04-25T15:10:02;7.07;;;5.13;;
7683;SDS011;3884;48.616;12.872;2023-04-25T15:12:30;27.30;;;16.33;;
7683;SDS011;3884;48.616;12.872;2023-04-25T15:14:58;22.80;;;13.97;;
7683;SDS011;3884;48.616;12.872;2023-04-25T15:17:26;10.30;;;6.90;;
7683;SDS011;3884;48.616;12.872;2023-04-25T15:19:56;6.50;;;5.47;;
7683;SDS011;3884;48.616;12.872;2023-04-25T15:22:25;7.43;;;6.40;;
7683;SDS011;3884;48.616;12.872;2023-04-25T15:24:52;6.37;;;5.13;;
7683;SDS011;3884;48.616;12.872;2023-04-25T15:27:19;7.23;;;6.43;;
7683;SDS011;3884;48.616;12.872;2023-04-25T15:29:48;4.17;;;3.77;;